createdAt,value
2023-01-06T00:01:34.220Z,98396.72
2023-01-06T00:05:36.324Z,98387.34
2023-01-06T00:09:38.575Z,98387.53
2023-01-06T00:13:41.211Z,98372.94
2023-01-06T00:17:43.811Z,98380.94
2023-01-06T00:21:45.849Z,98373.91
2023-01-06T00:25:51.496Z,98372.94
2023-01-06T00:29:53.644Z,98368.50
2023-01-06T00:33:57.188Z,98356.06
2023-01-06T00:37:59.369Z,98357.44
2023-01-06T00:42:04.344Z,98350.13
2023-01-06T00:46:06.394Z,98347.06
2023-01-06T00:50:09.452Z,98353.84
2023-01-06T00:54:15.163Z,98351.00
2023-01-06T00:58:17.136Z,98362.22
2023-01-06T01:02:19.467Z,98363.94
2023-01-06T01:06:21.609Z,98355.06
2023-01-06T01:10:24.470Z,98356.78
2023-01-06T01:14:26.756Z,98356.78
2023-01-06T01:18:29.104Z,98360.16
2023-01-06T01:22:31.499Z,98354.03
2023-01-06T01:26:33.553Z,98342.75
2023-01-06T01:30:35.565Z,98348.94
2023-01-06T01:34:37.741Z,98355.28
2023-01-06T01:38:40.057Z,98359.66
2023-01-06T01:42:42.415Z,98356.22
2023-01-06T01:46:44.442Z,98362.44
2023-01-06T01:50:51.933Z,98369.66
2023-01-06T01:54:55.653Z,98362.63
2023-01-06T01:59:07.446Z,98354.03
2023-01-06T02:03:10.994Z,98356.59
2023-01-06T02:07:13.503Z,98354.84
2023-01-06T02:11:16.352Z,98357.19
2023-01-06T02:15:27.565Z,98350.03
2023-01-06T02:19:56.246Z,98349.84
2023-01-06T02:24:41.370Z,98346.38
2023-01-06T02:29:03.471Z,98350.28
2023-01-06T02:33:15.496Z,98347.56
2023-01-06T02:37:42.219Z,98333.56
2023-01-06T02:41:57.946Z,98329.31
2023-01-06T02:46:21.331Z,98333.56
2023-01-06T02:50:32.612Z,98338.94
2023-01-06T02:54:50.831Z,98333.00
2023-01-06T02:59:02.990Z,98339.16
2023-01-06T03:03:10.776Z,98333.94
2023-01-06T03:07:23.368Z,98328.72
2023-01-06T03:11:28.846Z,98334.94
2023-01-06T03:15:31.156Z,98329.75
2023-01-06T03:19:33.547Z,98327.06
2023-01-06T03:23:39.971Z,98320.84
2023-01-06T03:27:42.765Z,98307.75
2023-01-06T03:32:08.600Z,98296.59
2023-01-06T03:36:43.163Z,98299.78
2023-01-06T03:41:18.998Z,98297.63
2023-01-06T03:45:37.468Z,98295.91
2023-01-06T03:49:52.756Z,98293.97
2023-01-06T03:54:17.663Z,98279.84
2023-01-06T03:58:20.822Z,98287.75
2023-01-06T04:02:24.819Z,98286.81
2023-01-06T04:06:28.946Z,98280.53
2023-01-06T04:10:31.141Z,98276.19
2023-01-06T04:14:34.514Z,98276.06
2023-01-06T04:18:37.753Z,98274.31
2023-01-06T04:22:40.466Z,98281.25
2023-01-06T04:26:43.034Z,98271.69
2023-01-06T04:30:45.453Z,98272.66
2023-01-06T04:34:47.833Z,98286.69
2023-01-06T04:38:50.039Z,98281.44
2023-01-06T04:43:04.761Z,98285.69
2023-01-06T04:47:06.770Z,98287.47
2023-01-06T04:51:10.473Z,98287.47
2023-01-06T04:55:12.540Z,98296.13
2023-01-06T04:59:14.536Z,98296.25
2023-01-06T05:03:16.569Z,98299.13
2023-01-06T05:07:18.560Z,98289.69
2023-01-06T05:11:23.017Z,98286.28
2023-01-06T05:15:25.055Z,98297.03
2023-01-06T05:19:27.102Z,98273.88
2023-01-06T05:23:29.379Z,98273.19
2023-01-06T05:27:31.418Z,98283.69
2023-01-06T05:31:33.612Z,98284.84
2023-01-06T05:35:35.741Z,98292.91
2023-01-06T05:39:37.720Z,98288.75
2023-01-06T05:43:39.809Z,98288.00
2023-01-06T05:47:41.815Z,98291.53
2023-01-06T05:51:43.781Z,98291.53
2023-01-06T05:55:45.767Z,98292.38
2023-01-06T05:59:47.826Z,98298.47
2023-01-06T06:03:51.034Z,98294.97
2023-01-06T06:07:54.483Z,98283.56
2023-01-06T06:11:56.647Z,98288.78
2023-01-06T06:16:10.035Z,98300.97
2023-01-06T06:20:12.081Z,98306.38
2023-01-06T06:24:14.075Z,98295.97
2023-01-06T06:28:16.069Z,98297.59
2023-01-06T06:32:18.090Z,98300.19
2023-01-06T06:36:20.356Z,98307.25
2023-01-06T06:40:22.358Z,98295.03
2023-01-06T06:44:24.354Z,98292.44
2023-01-06T06:48:28.264Z,98281.88
2023-01-06T06:52:30.318Z,98290.47
2023-01-06T06:56:32.380Z,98291.63
2023-01-06T07:00:34.398Z,98295.34
2023-01-06T07:04:36.509Z,98281.47
2023-01-06T07:08:38.550Z,98285.00
2023-01-06T07:12:40.836Z,98288.47
2023-01-06T07:16:42.823Z,98295.09
2023-01-06T07:20:50.151Z,98289.50
2023-01-06T07:24:52.056Z,98309.09
2023-01-06T07:28:53.993Z,98305.06
2023-01-06T07:32:56.083Z,98320.88
2023-01-06T07:36:58.170Z,98321.81
2023-01-06T07:41:01.232Z,98312.47
2023-01-06T07:45:07.801Z,98319.34
2023-01-06T07:49:09.796Z,98313.94
2023-01-06T07:53:12.386Z,98317.56
2023-01-06T07:57:14.383Z,98319.41
2023-01-06T08:01:16.616Z,98324.59
2023-01-06T08:05:18.695Z,98329.78
2023-01-06T08:09:20.744Z,98328.94
2023-01-06T08:13:22.720Z,98322.03
2023-01-06T08:17:24.697Z,98317.06
2023-01-06T08:21:26.703Z,98319.84
2023-01-06T08:25:28.730Z,98325.22
2023-01-06T08:29:30.709Z,98311.41
2023-01-06T08:33:32.754Z,98322.06
2023-01-06T08:37:35.577Z,98322.94
2023-01-06T08:41:38.119Z,98329.78
2023-01-06T08:45:40.348Z,98323.69
2023-01-06T08:49:42.395Z,98333.09
2023-01-06T08:53:44.615Z,98329.47
2023-01-06T08:57:46.657Z,98320.59
2023-01-06T09:01:48.738Z,98317.81
2023-01-06T09:05:55.837Z,98327.34
2023-01-06T09:09:57.912Z,98323.69
2023-01-06T09:14:00.298Z,98333.44
2023-01-06T09:18:02.303Z,98343.91
2023-01-06T09:22:04.383Z,98347.41
2023-01-06T09:26:06.409Z,98353.28
2023-01-06T09:30:09.037Z,98355.72
2023-01-06T09:34:10.999Z,98359.22
2023-01-06T09:38:13.641Z,98365.09
2023-01-06T09:42:35.287Z,98369.38
2023-01-06T09:46:40.484Z,98364.09
2023-01-06T09:50:47.879Z,98367.53
2023-01-06T09:54:58.759Z,98369.06
2023-01-06T09:59:08.969Z,98369.66
2023-01-06T10:03:16.760Z,98372.09
2023-01-06T10:07:26.082Z,98377.28
2023-01-06T10:11:35.055Z,98362.34
2023-01-06T10:15:56.588Z,98370.75
2023-01-06T10:20:30.429Z,98359.94
2023-01-06T10:24:50.948Z,98361.31
2023-01-06T10:28:54.694Z,98355.81
2023-01-06T10:32:56.838Z,98346.94
2023-01-06T10:37:17.176Z,98344.94
2023-01-06T10:41:37.415Z,98338.81
2023-01-06T10:45:44.321Z,98346.50
2023-01-06T10:49:46.351Z,98322.06
2023-01-06T10:53:48.489Z,98320.63
2023-01-06T10:57:51.702Z,98303.44
2023-01-06T11:01:57.125Z,98310.22
2023-01-06T11:06:22.173Z,98319.63
2023-01-06T11:10:28.991Z,98315.00
2023-01-06T11:14:33.604Z,98314.88
2023-01-06T11:18:39.435Z,98312.06
2023-01-06T11:22:42.851Z,98312.41
2023-01-06T11:26:51.241Z,98300.53
2023-01-06T11:31:13.506Z,98297.63
2023-01-06T11:35:21.227Z,98304.34
2023-01-06T11:39:28.800Z,98301.34
2023-01-06T11:43:33.734Z,98300.28
2023-01-06T11:47:35.905Z,98293.25
2023-01-06T11:51:40.771Z,98289.63
2023-01-06T11:55:54.758Z,98289.63
2023-01-06T12:00:19.041Z,98294.88
2023-01-06T12:04:32.808Z,98291.69
2023-01-06T12:08:42.692Z,98291.88
2023-01-06T12:12:44.760Z,98285.81
2023-01-06T12:17:04.884Z,98287.72
2023-01-06T12:21:14.665Z,98292.38
2023-01-06T12:25:24.238Z,98295.00
2023-01-06T12:29:26.513Z,98287.13
2023-01-06T12:34:05.914Z,98283.72
2023-01-06T12:38:36.067Z,98280.06
2023-01-06T12:42:59.518Z,98276.44
2023-01-06T12:47:19.430Z,98273.56
2023-01-06T12:51:40.421Z,98283.06
2023-01-06T12:56:06.549Z,98278.84
2023-01-06T13:00:36.639Z,98281.81
2023-01-06T13:04:38.636Z,98281.88
2023-01-06T13:08:56.195Z,98277.34
2023-01-06T13:13:37.231Z,98288.59
2023-01-06T13:17:46.999Z,98284.06
2023-01-06T13:21:53.213Z,98280.53
2023-01-06T13:26:19.356Z,98280.44
2023-01-06T13:30:38.089Z,98288.97
2023-01-06T13:34:50.813Z,98282.16
2023-01-06T13:39:34.663Z,98285.69
2023-01-06T13:43:37.003Z,98289.63
2023-01-06T13:47:39.815Z,98289.25
2023-01-06T13:51:44.192Z,98289.84
2023-01-06T13:55:46.601Z,98285.16
2023-01-06T13:59:52.752Z,98277.28
2023-01-06T14:03:56.433Z,98285.97
2023-01-06T14:08:04.311Z,98284.19
2023-01-06T14:12:14.689Z,98291.28
2023-01-06T14:16:16.779Z,98298.19
2023-01-06T14:20:45.243Z,98292.06
2023-01-06T14:24:54.468Z,98305.25
2023-01-06T14:29:34.722Z,98305.31
2023-01-06T14:33:44.272Z,98292.28
2023-01-06T14:37:51.186Z,98302.03
2023-01-06T14:42:14.926Z,98303.03
2023-01-06T14:46:25.887Z,98307.63
2023-01-06T14:50:47.281Z,98301.59
2023-01-06T14:54:51.991Z,98306.97
2023-01-06T14:59:05.688Z,98308.16
2023-01-06T15:03:24.856Z,98316.94
2023-01-06T15:07:26.985Z,98320.63
2023-01-06T15:11:31.427Z,98318.00
2023-01-06T15:15:33.728Z,98320.88
2023-01-06T15:19:36.260Z,98314.84
2023-01-06T15:23:43.864Z,98315.91
2023-01-06T15:27:48.334Z,98325.72
2023-01-06T15:31:53.408Z,98327.56
2023-01-06T15:35:55.905Z,98326.88
2023-01-06T15:39:58.102Z,98325.25
2023-01-06T15:44:02.082Z,98333.19
2023-01-06T15:48:14.602Z,98332.22
2023-01-06T15:52:39.501Z,98332.31
2023-01-06T15:56:41.657Z,98340.50
2023-01-06T16:00:49.752Z,98337.25
2023-01-06T16:04:52.044Z,98339.03
2023-01-06T16:09:14.314Z,98333.06
2023-01-06T16:13:18.074Z,98331.41
2023-01-06T16:17:29.492Z,98328.91
2023-01-06T16:21:31.986Z,98337.72
2023-01-06T16:25:35.352Z,98331.59
2023-01-06T16:29:38.536Z,98335.00
2023-01-06T16:33:44.227Z,98339.16
2023-01-06T16:37:46.461Z,98334.91
2023-01-06T16:42:39.627Z,98346.25
2023-01-06T16:46:41.695Z,98343.69
2023-01-06T16:50:46.495Z,98323.56
2023-01-06T16:54:54.046Z,98320.94
2023-01-06T16:58:56.083Z,98314.94
2023-01-06T17:02:58.302Z,98326.53
2023-01-06T17:07:00.313Z,98313.53
2023-01-06T17:11:13.396Z,98338.00
2023-01-06T17:15:15.467Z,98340.78
2023-01-06T17:19:23.907Z,98338.31
2023-01-06T17:23:25.957Z,98329.84
2023-01-06T17:27:29.940Z,98334.91
2023-01-06T17:31:36.564Z,98333.16
2023-01-06T17:35:38.735Z,98343.75
2023-01-06T17:39:43.721Z,98357.66
2023-01-06T17:43:46.397Z,98356.75
2023-01-06T17:47:50.569Z,98355.91
2023-01-06T17:51:53.757Z,98351.75
2023-01-06T17:55:56.438Z,98361.31
2023-01-06T17:59:58.462Z,98368.38
2023-01-06T18:04:01.894Z,98373.72
2023-01-06T18:08:06.922Z,98363.38
2023-01-06T18:12:15.838Z,98373.97
2023-01-06T18:16:35.095Z,98374.09
2023-01-06T18:20:37.174Z,98379.47
2023-01-06T18:24:40.577Z,98379.47
2023-01-06T18:28:42.594Z,98391.63
2023-01-06T18:32:46.003Z,98381.16
2023-01-06T18:36:49.643Z,98385.31
2023-01-06T18:40:52.597Z,98374.72
2023-01-06T18:45:02.596Z,98383.56
2023-01-06T18:49:11.894Z,98384.28
2023-01-06T18:53:13.926Z,98381.63
2023-01-06T18:57:27.472Z,98384.47
2023-01-06T19:01:38.458Z,98385.66
2023-01-06T19:05:40.765Z,98390.91
2023-01-06T19:09:49.920Z,98396.03
2023-01-06T19:13:59.349Z,98394.03
2023-01-06T19:18:02.889Z,98391.31
2023-01-06T19:22:20.084Z,98387.78
2023-01-06T19:26:33.865Z,98385.38
2023-01-06T19:30:48.155Z,98388.31
2023-01-06T19:34:50.129Z,98386.03
2023-01-06T19:38:52.129Z,98384.44
2023-01-06T19:42:59.336Z,98380.97
2023-01-06T19:47:13.193Z,98377.78
2023-01-06T19:51:21.337Z,98374.59
2023-01-06T19:55:25.708Z,98373.16
2023-01-06T19:59:35.084Z,98373.16
2023-01-06T20:03:42.699Z,98367.22
2023-01-06T20:07:45.107Z,98371.06
2023-01-06T20:11:47.780Z,98371.22
2023-01-06T20:15:49.861Z,98388.69
2023-01-06T20:19:51.851Z,98374.69
2023-01-06T20:23:53.911Z,98381.78
2023-01-06T20:27:56.084Z,98391.28
2023-01-06T20:31:58.204Z,98370.31
2023-01-06T20:36:00.368Z,98373.78
2023-01-06T20:40:02.434Z,98369.47
2023-01-06T20:44:04.550Z,98368.56
2023-01-06T20:48:07.360Z,98370.19
2023-01-06T20:52:09.633Z,98365.81
2023-01-06T20:56:11.631Z,98372.78
2023-01-06T21:00:14.118Z,98382.34
2023-01-06T21:04:16.176Z,98384.84
2023-01-06T21:08:18.197Z,98378.91
2023-01-06T21:12:20.199Z,98372.53
2023-01-06T21:16:22.634Z,98373.72
2023-01-06T21:20:24.696Z,98367.09
2023-01-06T21:24:26.730Z,98376.06
2023-01-06T21:28:28.818Z,98384.75
2023-01-06T21:32:30.876Z,98370.00
2023-01-06T21:36:32.920Z,98382.34
2023-01-06T21:40:34.989Z,98367.75
2023-01-06T21:44:37.002Z,98367.75
2023-01-06T21:48:39.024Z,98376.63
2023-01-06T21:52:41.244Z,98378.44
2023-01-06T21:56:43.295Z,98377.53
2023-01-06T22:00:45.298Z,98380.06
2023-01-06T22:04:47.302Z,98359.97
2023-01-06T22:08:51.139Z,98359.19
2023-01-06T22:12:56.397Z,98350.53
2023-01-06T22:17:00.448Z,98354.06
2023-01-06T22:21:03.672Z,98354.91
2023-01-06T22:25:06.556Z,98347.81
2023-01-06T22:29:08.754Z,98361.22
2023-01-06T22:33:10.780Z,98355.91
2023-01-06T22:37:12.793Z,98357.59
2023-01-06T22:41:15.133Z,98373.28
2023-01-06T22:45:17.320Z,98381.22
2023-01-06T22:49:19.419Z,98376.06
2023-01-06T22:53:21.451Z,98377.75
2023-01-06T22:57:23.461Z,98388.94
2023-01-06T23:01:25.563Z,98388.94
2023-01-06T23:05:28.834Z,98387.31
2023-01-06T23:09:30.851Z,98390.13
2023-01-06T23:13:33.802Z,98384.16
2023-01-06T23:17:36.863Z,98380.59
2023-01-06T23:21:39.618Z,98376.47
2023-01-06T23:25:41.638Z,98369.50
2023-01-06T23:29:45.684Z,98367.09
2023-01-06T23:33:51.725Z,98362.81
2023-01-06T23:37:53.722Z,98361.22
2023-01-06T23:41:55.802Z,98353.56
2023-01-06T23:46:03.364Z,98340.56
2023-01-06T23:50:05.893Z,98341.66
2023-01-06T23:54:08.296Z,98346.16
2023-01-06T23:58:10.299Z,98345.38
